createdAt,value
2022-10-13T00:01:45.281Z,13.31
2022-10-13T00:04:31.926Z,13.29
2022-10-13T00:07:18.553Z,13.27
2022-10-13T00:10:05.355Z,13.24
2022-10-13T00:12:52.047Z,13.21
2022-10-13T00:15:39.369Z,13.20
2022-10-13T00:18:26.028Z,13.18
2022-10-13T00:21:14.419Z,13.15
2022-10-13T00:24:01.132Z,13.14
2022-10-13T00:26:49.485Z,13.11
2022-10-13T00:29:36.197Z,13.10
2022-10-13T00:32:22.823Z,13.08
2022-10-13T00:35:09.514Z,13.07
2022-10-13T00:37:56.264Z,13.06
2022-10-13T00:40:43.869Z,13.03
2022-10-13T00:43:50.479Z,13.03
2022-10-13T00:46:37.302Z,13.01
2022-10-13T00:49:23.954Z,13.01
2022-10-13T00:52:10.619Z,12.99
2022-10-13T00:54:57.286Z,12.98
2022-10-13T00:57:44.009Z,12.96
2022-10-13T01:00:31.265Z,12.95
2022-10-13T01:03:20.971Z,12.93
2022-10-13T01:06:07.925Z,12.92
2022-10-13T01:08:54.836Z,12.91
2022-10-13T01:11:51.302Z,12.90
2022-10-13T01:14:53.792Z,12.90
2022-10-13T01:17:47.337Z,12.89
2022-10-13T01:20:37.235Z,12.89
2022-10-13T01:23:36.287Z,12.86
2022-10-13T01:26:41.101Z,12.86
2022-10-13T01:29:46.293Z,12.85
2022-10-13T01:32:42.804Z,12.84
2022-10-13T01:35:34.147Z,12.83
2022-10-13T01:38:30.053Z,12.82
2022-10-13T01:41:19.773Z,12.81
2022-10-13T01:44:06.618Z,12.80
2022-10-13T01:46:55.346Z,12.79
2022-10-13T01:49:42.010Z,12.77
2022-10-13T01:52:32.608Z,12.77
2022-10-13T01:55:19.341Z,12.76
2022-10-13T01:58:05.989Z,12.75
2022-10-13T02:01:00.289Z,12.74
2022-10-13T02:04:05.893Z,12.72
2022-10-13T02:06:58.341Z,12.73
2022-10-13T02:10:04.415Z,12.71
2022-10-13T02:12:52.402Z,12.69
2022-10-13T02:15:46.038Z,12.67
2022-10-13T02:18:33.697Z,12.68
2022-10-13T02:21:20.337Z,12.67
2022-10-13T02:24:07.448Z,12.66
2022-10-13T02:26:54.085Z,12.66
2022-10-13T02:29:55.109Z,12.64
2022-10-13T02:32:41.766Z,12.62
2022-10-13T02:35:28.515Z,12.63
2022-10-13T02:38:15.212Z,12.62
2022-10-13T02:41:02.676Z,12.60
2022-10-13T02:43:49.337Z,12.60
2022-10-13T02:46:35.979Z,12.60
2022-10-13T02:49:22.656Z,12.60
2022-10-13T02:52:09.354Z,12.59
2022-10-13T02:54:56.012Z,12.58
2022-10-13T02:57:42.734Z,12.57
2022-10-13T03:00:29.887Z,12.57
2022-10-13T03:03:16.562Z,12.54
2022-10-13T03:06:03.392Z,12.55
2022-10-13T03:08:50.292Z,12.54
2022-10-13T03:11:36.968Z,12.55
2022-10-13T03:14:23.630Z,12.54
2022-10-13T03:17:13.420Z,12.53
2022-10-13T03:20:00.337Z,12.53
2022-10-13T03:22:49.740Z,12.53
2022-10-13T03:25:36.772Z,12.52
2022-10-13T03:28:23.496Z,12.52
2022-10-13T03:31:11.106Z,12.52
2022-10-13T03:33:57.838Z,12.51
2022-10-13T03:36:44.519Z,12.51
2022-10-13T03:39:31.265Z,12.49
2022-10-13T03:42:18.260Z,12.49
2022-10-13T03:45:05.552Z,12.49
2022-10-13T03:47:52.223Z,12.49
2022-10-13T03:50:38.945Z,12.49
2022-10-13T03:53:25.834Z,12.47
2022-10-13T03:56:16.502Z,12.48
2022-10-13T03:59:04.915Z,12.46
2022-10-13T04:01:51.714Z,12.45
2022-10-13T04:04:38.689Z,12.45
2022-10-13T04:07:25.342Z,12.46
2022-10-13T04:10:12.019Z,12.45
2022-10-13T04:12:58.773Z,12.44
2022-10-13T04:15:45.491Z,12.44
2022-10-13T04:18:32.351Z,12.43
2022-10-13T04:21:18.990Z,12.43
2022-10-13T04:24:05.895Z,12.43
2022-10-13T04:26:52.556Z,12.42
2022-10-13T04:29:39.225Z,12.42
2022-10-13T04:32:25.879Z,12.41
2022-10-13T04:35:12.522Z,12.40
2022-10-13T04:37:59.267Z,12.40
2022-10-13T04:40:45.942Z,12.38
2022-10-13T04:43:32.868Z,12.39
2022-10-13T04:46:23.516Z,12.37
2022-10-13T04:49:10.212Z,12.37
2022-10-13T04:51:56.846Z,12.36
2022-10-13T04:54:43.489Z,12.36
2022-10-13T04:57:30.454Z,12.35
2022-10-13T05:00:17.297Z,12.34
2022-10-13T05:03:03.999Z,12.33
2022-10-13T05:05:50.781Z,12.34
2022-10-13T05:08:37.981Z,12.33
2022-10-13T05:11:25.402Z,12.33
2022-10-13T05:14:12.112Z,12.33
2022-10-13T05:16:58.779Z,12.33
2022-10-13T05:19:45.448Z,12.31
2022-10-13T05:22:32.344Z,12.31
2022-10-13T05:25:19.086Z,12.31
2022-10-13T05:28:06.244Z,12.30
2022-10-13T05:30:52.908Z,12.29
2022-10-13T05:33:39.678Z,12.30
2022-10-13T05:36:27.301Z,12.28
2022-10-13T05:39:13.953Z,12.28
2022-10-13T05:42:00.712Z,12.28
2022-10-13T05:44:47.435Z,12.27
2022-10-13T05:47:34.167Z,12.27
2022-10-13T05:50:20.801Z,12.26
2022-10-13T05:53:07.459Z,12.24
2022-10-13T05:55:54.154Z,12.23
2022-10-13T05:58:41.376Z,12.23
2022-10-13T06:01:28.060Z,12.21
2022-10-13T06:04:19.406Z,12.22
2022-10-13T06:07:06.046Z,12.22
2022-10-13T06:09:52.695Z,12.22
2022-10-13T06:12:39.395Z,12.22
2022-10-13T06:15:28.343Z,12.22
2022-10-13T06:18:15.171Z,12.26
2022-10-13T06:21:02.076Z,12.33
2022-10-13T06:23:48.893Z,12.42
2022-10-13T06:26:35.561Z,12.52
2022-10-13T06:29:22.282Z,12.60
2022-10-13T06:32:08.921Z,12.65
2022-10-13T06:34:55.590Z,12.70
2022-10-13T06:37:42.330Z,12.75
2022-10-13T06:40:29.028Z,12.80
2022-10-13T06:43:15.781Z,12.83
2022-10-13T06:46:02.523Z,12.84
2022-10-13T06:48:49.908Z,12.87
2022-10-13T06:51:36.698Z,12.89
2022-10-13T06:54:23.336Z,12.90
2022-10-13T06:57:09.974Z,12.93
2022-10-13T06:59:56.821Z,12.93
2022-10-13T07:02:43.559Z,12.94
2022-10-13T07:05:30.551Z,12.95
2022-10-13T07:08:17.196Z,12.97
2022-10-13T07:11:15.910Z,12.97
2022-10-13T07:14:03.271Z,12.98
2022-10-13T07:16:50.305Z,12.98
2022-10-13T07:19:36.954Z,12.95
2022-10-13T07:22:23.578Z,12.89
2022-10-13T07:25:10.338Z,12.83
2022-10-13T07:27:58.227Z,12.79
2022-10-13T07:30:44.929Z,12.74
2022-10-13T07:33:31.583Z,12.71
2022-10-13T07:36:18.542Z,12.69
2022-10-13T07:39:05.190Z,12.68
2022-10-13T07:41:51.838Z,12.66
2022-10-13T07:44:38.526Z,12.65
2022-10-13T07:47:25.202Z,12.64
2022-10-13T07:50:11.981Z,12.64
2022-10-13T07:52:58.955Z,12.63
2022-10-13T07:55:45.777Z,12.62
2022-10-13T07:58:32.585Z,12.62
2022-10-13T08:01:19.337Z,12.63
2022-10-13T08:04:06.933Z,12.64
2022-10-13T08:06:53.604Z,12.64
2022-10-13T08:09:40.269Z,12.65
2022-10-13T08:12:26.934Z,12.67
2022-10-13T08:15:13.600Z,12.67
2022-10-13T08:18:00.242Z,12.68
2022-10-13T08:20:46.910Z,12.71
2022-10-13T08:23:33.575Z,12.72
2022-10-13T08:26:21.479Z,12.72
2022-10-13T08:29:24.299Z,12.75
2022-10-13T08:32:11.247Z,12.77
2022-10-13T08:34:57.988Z,12.77
2022-10-13T08:37:44.642Z,12.81
2022-10-13T08:40:31.589Z,12.82
2022-10-13T08:43:19.230Z,12.83
2022-10-13T08:46:05.879Z,12.85
2022-10-13T08:48:52.642Z,12.88
2022-10-13T08:51:39.827Z,12.89
2022-10-13T08:54:26.557Z,12.92
2022-10-13T08:57:13.229Z,12.93
2022-10-13T08:59:59.924Z,12.95
2022-10-13T09:02:46.568Z,12.97
2022-10-13T09:05:41.927Z,12.98
2022-10-13T09:08:28.643Z,12.99
2022-10-13T09:11:15.331Z,13.02
2022-10-13T09:14:03.863Z,13.05
2022-10-13T09:16:51.022Z,13.06
2022-10-13T09:19:37.685Z,13.08
2022-10-13T09:22:31.704Z,13.10
2022-10-13T09:25:22.139Z,13.12
2022-10-13T09:28:30.357Z,13.14
2022-10-13T09:31:30.482Z,13.15
2022-10-13T09:34:19.959Z,13.17
2022-10-13T09:37:11.835Z,13.18
2022-10-13T09:40:02.269Z,13.22
2022-10-13T09:42:51.975Z,13.22
2022-10-13T09:45:38.681Z,13.25
2022-10-13T09:48:26.933Z,13.26
2022-10-13T09:51:46.070Z,13.28
2022-10-13T09:54:35.470Z,13.31
2022-10-13T09:57:30.002Z,13.31
2022-10-13T10:00:17.035Z,13.33
2022-10-13T10:03:26.767Z,13.36
2022-10-13T10:06:14.493Z,13.37
2022-10-13T10:09:05.771Z,13.38
2022-10-13T10:11:52.439Z,13.40
2022-10-13T10:14:39.240Z,13.42
2022-10-13T10:17:35.064Z,13.43
2022-10-13T10:20:41.039Z,13.45
2022-10-13T10:23:47.920Z,13.48
2022-10-13T10:26:37.588Z,13.49
2022-10-13T10:29:26.495Z,13.52
2022-10-13T10:32:20.756Z,13.53
2022-10-13T10:35:26.663Z,13.55
2022-10-13T10:38:16.339Z,13.58
2022-10-13T10:41:23.401Z,13.59
2022-10-13T10:44:11.070Z,13.61
2022-10-13T10:46:59.684Z,13.64
2022-10-13T10:49:46.413Z,13.66
2022-10-13T10:52:48.313Z,13.66
2022-10-13T10:55:34.979Z,13.68
2022-10-13T10:58:27.581Z,13.71
2022-10-13T11:01:16.525Z,13.73
2022-10-13T11:04:21.957Z,13.74
2022-10-13T11:07:34.601Z,13.75
2022-10-13T11:10:21.669Z,13.77
2022-10-13T11:13:18.339Z,13.79
2022-10-13T11:16:22.894Z,13.81
2022-10-13T11:19:15.593Z,13.82
2022-10-13T11:22:02.187Z,13.83
2022-10-13T11:24:49.943Z,13.85
2022-10-13T11:27:36.542Z,13.85
2022-10-13T11:30:42.830Z,13.87
2022-10-13T11:33:35.282Z,13.88
2022-10-13T11:36:40.765Z,13.89
2022-10-13T11:39:27.994Z,13.91
2022-10-13T11:42:20.017Z,13.93
2022-10-13T11:45:13.432Z,13.94
2022-10-13T11:48:04.409Z,13.95
2022-10-13T11:51:03.393Z,13.96
2022-10-13T11:53:52.787Z,13.99
2022-10-13T11:56:48.660Z,14.00
2022-10-13T11:59:37.498Z,14.02
2022-10-13T12:02:25.409Z,14.03
2022-10-13T12:05:25.942Z,14.05
2022-10-13T12:08:12.591Z,14.08
2022-10-13T12:11:02.766Z,14.09
2022-10-13T12:13:49.430Z,14.12
2022-10-13T12:16:36.134Z,14.14
2022-10-13T12:19:27.310Z,14.15
2022-10-13T12:22:14.075Z,14.18
2022-10-13T12:25:05.045Z,14.20
2022-10-13T12:27:53.754Z,14.23
2022-10-13T12:30:40.398Z,14.26
2022-10-13T12:33:28.798Z,14.27
2022-10-13T12:36:19.115Z,14.30
2022-10-13T12:39:06.537Z,14.32
2022-10-13T12:41:53.953Z,14.36
2022-10-13T12:44:40.606Z,14.37
2022-10-13T12:47:38.630Z,14.39
2022-10-13T12:50:25.312Z,14.41
2022-10-13T12:53:13.808Z,14.43
2022-10-13T12:56:01.141Z,14.45
2022-10-13T12:58:47.803Z,14.48
2022-10-13T13:01:34.671Z,14.49
2022-10-13T13:04:21.332Z,14.50
2022-10-13T13:07:26.823Z,14.54
2022-10-13T13:10:14.869Z,14.55
2022-10-13T13:13:12.957Z,14.57
2022-10-13T13:16:16.091Z,14.58
2022-10-13T13:19:02.727Z,14.60
2022-10-13T13:21:49.468Z,14.61
2022-10-13T13:24:40.222Z,14.62
2022-10-13T13:27:27.970Z,14.64
2022-10-13T13:30:15.469Z,14.66
2022-10-13T13:33:02.196Z,14.67
2022-10-13T13:35:49.175Z,14.68
2022-10-13T13:38:36.046Z,14.68
2022-10-13T13:41:22.793Z,14.67
2022-10-13T13:44:09.452Z,14.71
2022-10-13T13:46:56.125Z,14.72
2022-10-13T13:49:42.897Z,14.73
2022-10-13T13:52:29.632Z,14.72
2022-10-13T13:55:16.430Z,14.74
2022-10-13T13:58:03.387Z,14.76
2022-10-13T14:00:50.111Z,14.76
2022-10-13T14:03:36.783Z,14.77
2022-10-13T14:06:23.455Z,14.78
2022-10-13T14:09:10.189Z,14.79
2022-10-13T14:11:56.912Z,14.80
2022-10-13T14:14:43.702Z,14.81
2022-10-13T14:17:30.425Z,14.83
2022-10-13T14:20:17.156Z,14.82
2022-10-13T14:23:03.795Z,14.84
2022-10-13T14:25:50.462Z,14.85
2022-10-13T14:28:37.158Z,14.85
2022-10-13T14:31:24.062Z,14.85
2022-10-13T14:34:10.696Z,14.87
2022-10-13T14:36:57.345Z,14.87
2022-10-13T14:39:44.181Z,14.87
2022-10-13T14:42:30.808Z,14.87
2022-10-13T14:45:17.869Z,14.88
2022-10-13T14:48:04.692Z,14.87
2022-10-13T14:50:51.322Z,14.89
2022-10-13T14:53:38.989Z,14.89
2022-10-13T14:56:26.422Z,14.88
2022-10-13T14:59:13.071Z,14.90
2022-10-13T15:01:59.963Z,14.90
2022-10-13T15:04:46.610Z,14.90
2022-10-13T15:07:34.033Z,14.91
2022-10-13T15:10:22.769Z,14.91
2022-10-13T15:13:09.402Z,14.93
2022-10-13T15:15:56.661Z,14.92
2022-10-13T15:18:43.673Z,14.94
2022-10-13T15:21:30.317Z,14.94
2022-10-13T15:24:17.014Z,14.94
2022-10-13T15:27:03.692Z,14.97
2022-10-13T15:29:50.393Z,15.08
2022-10-13T15:32:37.057Z,15.23
2022-10-13T15:35:23.977Z,15.34
2022-10-13T15:38:10.605Z,15.46
2022-10-13T15:41:00.730Z,15.56
2022-10-13T15:43:47.959Z,15.63
2022-10-13T15:46:34.739Z,15.70
2022-10-13T15:49:22.287Z,15.75
2022-10-13T15:52:09.095Z,15.79
2022-10-13T15:54:56.780Z,15.82
2022-10-13T15:57:43.585Z,15.86
2022-10-13T16:00:30.383Z,15.88
2022-10-13T16:03:17.564Z,15.89
2022-10-13T16:06:05.237Z,15.91
2022-10-13T16:08:51.913Z,15.92
2022-10-13T16:11:38.567Z,15.93
2022-10-13T16:14:25.256Z,15.94
2022-10-13T16:17:11.908Z,15.94
2022-10-13T16:19:58.584Z,15.94
2022-10-13T16:22:45.219Z,15.94
2022-10-13T16:25:32.076Z,15.94
2022-10-13T16:28:18.835Z,15.93
2022-10-13T16:31:08.403Z,15.93
2022-10-13T16:33:55.468Z,15.92
2022-10-13T16:36:42.098Z,15.92
2022-10-13T16:39:28.755Z,15.91
2022-10-13T16:42:15.407Z,15.90
2022-10-13T16:45:02.066Z,15.89
2022-10-13T16:47:51.685Z,15.87
2022-10-13T16:50:38.343Z,15.85
2022-10-13T16:53:28.007Z,15.83
2022-10-13T16:56:14.766Z,15.81
2022-10-13T16:59:02.222Z,15.80
2022-10-13T17:01:48.882Z,15.77
2022-10-13T17:04:35.570Z,15.74
2022-10-13T17:07:22.509Z,15.72
2022-10-13T17:10:09.803Z,15.70
2022-10-13T17:12:56.668Z,15.67
2022-10-13T17:15:50.262Z,15.66
2022-10-13T17:18:36.906Z,15.63
2022-10-13T17:21:23.560Z,15.60
2022-10-13T17:24:10.877Z,15.59
2022-10-13T17:26:57.531Z,15.56
2022-10-13T17:29:44.856Z,15.54
2022-10-13T17:32:31.615Z,15.51
2022-10-13T17:35:18.258Z,15.49
2022-10-13T17:38:05.654Z,15.47
2022-10-13T17:40:54.966Z,15.44
2022-10-13T17:43:45.594Z,15.41
2022-10-13T17:46:37.470Z,15.39
2022-10-13T17:49:24.849Z,15.36
2022-10-13T17:52:11.525Z,15.32
2022-10-13T17:54:58.169Z,15.30
2022-10-13T17:57:44.886Z,15.28
2022-10-13T18:00:36.600Z,15.25
2022-10-13T18:03:30.571Z,15.23
2022-10-13T18:06:17.629Z,15.21
2022-10-13T18:09:05.065Z,15.17
2022-10-13T18:11:52.610Z,15.14
2022-10-13T18:14:39.278Z,15.12
2022-10-13T18:17:25.922Z,15.10
2022-10-13T18:20:12.583Z,15.07
2022-10-13T18:22:59.661Z,15.05
2022-10-13T18:25:46.361Z,15.02
2022-10-13T18:28:33.898Z,14.98
2022-10-13T18:31:39.410Z,14.96
2022-10-13T18:34:26.062Z,14.93
2022-10-13T18:37:12.708Z,14.90
2022-10-13T18:39:59.387Z,14.88
2022-10-13T18:42:49.633Z,14.85
2022-10-13T18:45:39.592Z,14.82
2022-10-13T18:48:26.420Z,14.79
2022-10-13T18:51:14.022Z,14.76
2022-10-13T18:54:00.838Z,14.74
2022-10-13T18:56:47.499Z,14.70
2022-10-13T18:59:38.526Z,14.67
2022-10-13T19:02:25.232Z,14.64
2022-10-13T19:05:11.895Z,14.61
2022-10-13T19:07:58.567Z,14.58
2022-10-13T19:10:45.400Z,14.55
2022-10-13T19:13:32.784Z,14.53
2022-10-13T19:16:20.500Z,14.51
2022-10-13T19:19:09.020Z,14.48
2022-10-13T19:21:55.706Z,14.46
2022-10-13T19:24:42.370Z,14.42
2022-10-13T19:27:29.103Z,14.39
2022-10-13T19:30:16.048Z,14.37
2022-10-13T19:33:05.454Z,14.35
2022-10-13T19:35:52.230Z,14.31
2022-10-13T19:38:38.962Z,14.29
2022-10-13T19:41:27.161Z,14.27
2022-10-13T19:44:14.477Z,14.23
2022-10-13T19:47:01.126Z,14.20
2022-10-13T19:49:47.852Z,14.18
2022-10-13T19:52:34.496Z,14.16
2022-10-13T19:55:21.271Z,14.13
2022-10-13T19:58:07.963Z,14.11
2022-10-13T20:00:54.656Z,14.08
2022-10-13T20:03:41.437Z,14.07
2022-10-13T20:06:28.146Z,14.03
2022-10-13T20:09:15.003Z,14.01
2022-10-13T20:12:01.683Z,14.00
2022-10-13T20:14:48.488Z,13.97
2022-10-13T20:17:35.186Z,13.96
2022-10-13T20:20:22.601Z,13.94
2022-10-13T20:23:09.444Z,13.93
2022-10-13T20:25:56.107Z,13.91
2022-10-13T20:28:43.421Z,13.89
2022-10-13T20:31:30.222Z,13.88
2022-10-13T20:34:17.080Z,13.87
2022-10-13T20:37:03.763Z,13.86
2022-10-13T20:39:50.408Z,13.82
2022-10-13T20:42:37.087Z,13.81
2022-10-13T20:45:23.833Z,13.80
2022-10-13T20:48:10.679Z,13.78
2022-10-13T20:51:01.006Z,13.76
2022-10-13T20:53:48.429Z,13.74
2022-10-13T20:56:35.716Z,13.72
2022-10-13T20:59:22.435Z,13.71
2022-10-13T21:02:11.008Z,13.68
2022-10-13T21:04:57.654Z,13.66
2022-10-13T21:07:44.333Z,13.63
2022-10-13T21:10:31.000Z,13.62
2022-10-13T21:13:17.712Z,13.61
2022-10-13T21:16:08.762Z,13.58
2022-10-13T21:18:56.234Z,13.57
2022-10-13T21:21:43.044Z,13.55
2022-10-13T21:24:29.729Z,13.53
2022-10-13T21:27:16.399Z,13.51
2022-10-13T21:30:03.877Z,13.47
2022-10-13T21:32:50.583Z,13.46
2022-10-13T21:35:37.283Z,13.44
2022-10-13T21:38:24.086Z,13.39
2022-10-13T21:41:11.538Z,13.37
2022-10-13T21:43:58.273Z,13.37
2022-10-13T21:46:45.033Z,13.36
2022-10-13T21:49:32.029Z,13.34
2022-10-13T21:52:18.723Z,13.33
2022-10-13T21:55:05.630Z,13.32
2022-10-13T21:57:52.442Z,13.31
2022-10-13T22:00:39.481Z,13.30
2022-10-13T22:03:26.273Z,13.29
2022-10-13T22:06:19.100Z,13.29
2022-10-13T22:09:06.544Z,13.28
2022-10-13T22:11:56.456Z,13.26
2022-10-13T22:14:43.417Z,13.23
2022-10-13T22:17:30.135Z,13.23
2022-10-13T22:20:16.783Z,13.21
2022-10-13T22:23:03.437Z,13.20
2022-10-13T22:25:50.166Z,13.19
2022-10-13T22:28:37.580Z,13.19
2022-10-13T22:31:24.643Z,13.18
2022-10-13T22:34:13.838Z,13.17
2022-10-13T22:37:00.481Z,13.15
2022-10-13T22:39:47.163Z,13.14
2022-10-13T22:42:33.920Z,13.13
2022-10-13T22:45:20.553Z,13.11
2022-10-13T22:48:09.826Z,13.10
2022-10-13T22:50:56.605Z,13.10
2022-10-13T22:53:43.359Z,13.08
2022-10-13T22:56:30.932Z,13.07
2022-10-13T22:59:17.622Z,13.05
2022-10-13T23:02:04.267Z,13.05
2022-10-13T23:04:50.986Z,13.04
2022-10-13T23:07:37.631Z,13.01
2022-10-13T23:10:24.310Z,13.01
2022-10-13T23:13:11.085Z,13.00
2022-10-13T23:16:01.305Z,13.00
2022-10-13T23:18:48.004Z,12.98
2022-10-13T23:21:34.634Z,12.97
2022-10-13T23:24:21.335Z,12.96
2022-10-13T23:27:08.003Z,12.94
2022-10-13T23:29:54.650Z,12.93
2022-10-13T23:32:41.290Z,12.93
2022-10-13T23:35:27.938Z,12.91
2022-10-13T23:38:14.590Z,12.93
2022-10-13T23:41:02.098Z,12.91
2022-10-13T23:43:48.793Z,12.91
2022-10-13T23:46:35.438Z,12.89
2022-10-13T23:49:22.137Z,12.88
2022-10-13T23:52:11.065Z,12.87
2022-10-13T23:54:57.864Z,12.86
2022-10-13T23:57:44.497Z,12.86
